Time;durP1;ratioP1;P1;durP2;ratioP2;P2;SDS_P1;SDS_P2;PMS_P1;PMS_P2;Temp;Humidity;BMP_temperature;BMP_pressure;BME280_temperature;BME280_humidity;BME280_pressure;Samples;Min_cycle;Max_cycle;Signal;HPM_P1;HPM_P2
2022/07/24 00:00:46;;;;;;;16.60;14.90;;;21.70;96.20;;;;;;5074712;28;20718;-68
2022/07/24 00:03:13;;;;;;;16.40;14.60;;;21.70;96.10;;;;;;5074042;28;20447;-69
2022/07/24 00:05:41;;;;;;;19.83;15.77;;;21.80;96.00;;;;;;5074676;28;20438;-67
2022/07/24 00:08:08;;;;;;;16.83;15.23;;;21.80;96.00;;;;;;5074182;28;20463;-68
2022/07/24 00:10:35;;;;;;;13.63;12.33;;;21.80;96.00;;;;;;5074741;28;20458;-67
2022/07/24 00:13:02;;;;;;;13.50;12.10;;;21.80;96.00;;;;;;5074160;28;20440;-68
2022/07/24 00:15:31;;;;;;;16.70;15.00;;;21.80;96.10;;;;;;5074541;28;20493;-68
2022/07/24 00:17:59;;;;;;;17.63;13.57;;;21.80;96.20;;;;;;5074260;28;20439;-67
2022/07/24 00:20:26;;;;;;;15.70;14.10;;;21.80;96.40;;;;;;5074294;28;20439;-67
2022/07/24 00:22:54;;;;;;;13.87;12.37;;;21.80;96.40;;;;;;5074004;28;20467;-66
2022/07/24 00:25:21;;;;;;;15.43;13.93;;;21.80;96.70;;;;;;5074576;28;20505;-65
2022/07/24 00:27:51;;;;;;;15.50;13.90;;;21.80;96.70;;;;;;5074250;28;20844;-64
2022/07/24 00:30:18;;;;;;;16.40;14.47;;;21.80;96.90;;;;;;5074396;28;20446;-65
2022/07/24 00:32:47;;;;;;;14.60;13.03;;;21.80;96.90;;;;;;5073624;28;20442;-66
2022/07/24 00:35:14;;;;;;;15.23;13.73;;;21.80;96.80;;;;;;5074359;28;20486;-65
2022/07/24 00:37:41;;;;;;;17.30;14.80;;;21.80;96.70;;;;;;5073840;28;20443;-66
2022/07/24 00:40:10;;;;;;;16.03;14.43;;;21.80;96.50;;;;;;5074434;28;20498;-66
2022/07/24 00:42:37;;;;;;;15.33;13.80;;;21.80;96.30;;;;;;5073332;28;20842;-66
2022/07/24 00:45:07;;;;;;;16.40;13.87;;;21.70;96.50;;;;;;5073799;28;20436;-66
2022/07/24 00:47:34;;;;;;;15.40;13.80;;;21.70;96.40;;;;;;5073839;28;20447;-66
2022/07/24 00:50:04;;;;;;;15.13;13.67;;;21.50;96.60;;;;;;5074038;28;20432;-66
2022/07/24 00:52:31;;;;;;;14.63;13.33;;;21.50;96.70;;;;;;5073249;28;20819;-66
2022/07/24 00:54:58;;;;;;;14.70;13.17;;;21.40;96.60;;;;;;5073663;28;20475;-69
2022/07/24 00:57:27;;;;;;;15.50;13.40;;;21.40;96.70;;;;;;5073835;28;20445;-66
2022/07/24 00:59:55;;;;;;;14.00;12.43;;;21.40;96.80;;;;;;5073117;28;20491;-66
2022/07/24 01:02:22;;;;;;;15.43;13.37;;;21.40;96.60;;;;;;5073703;28;20514;-66
2022/07/24 01:04:50;;;;;;;13.50;12.20;;;21.50;96.70;;;;;;5073585;28;20446;-66
2022/07/24 01:07:19;;;;;;;15.93;14.40;;;21.40;96.90;;;;;;5073664;28;20438;-66
2022/07/24 01:09:46;;;;;;;16.83;15.10;;;21.40;97.00;;;;;;5072987;28;20451;-66
2022/07/24 01:12:14;;;;;;;16.63;14.43;;;21.40;97.10;;;;;;5073747;28;20450;-66
2022/07/24 01:14:41;;;;;;;14.10;12.60;;;21.40;97.10;;;;;;5072977;28;20473;-66
2022/07/24 01:17:08;;;;;;;15.53;14.07;;;21.40;97.10;;;;;;5072203;28;20493;-66
2022/07/24 01:19:36;;;;;;;16.30;14.63;;;21.30;97.00;;;;;;5072900;28;20448;-65
2022/07/24 01:22:05;;;;;;;15.43;13.60;;;21.30;96.90;;;;;;5073272;28;20458;-66
2022/07/24 01:24:34;;;;;;;14.50;13.10;;;21.30;96.90;;;;;;5072767;28;20515;-66
2022/07/24 01:27:01;;;;;;;15.93;13.73;;;21.30;96.90;;;;;;5073392;28;20443;-66
2022/07/24 01:29:28;;;;;;;16.00;14.10;;;21.30;97.00;;;;;;5072791;28;20526;-66
2022/07/24 01:31:56;;;;;;;13.90;12.50;;;21.20;97.10;;;;;;5073285;28;20498;-66
2022/07/24 01:34:23;;;;;;;15.60;14.00;;;21.20;97.10;;;;;;5072664;28;20447;-66
2022/07/24 01:36:51;;;;;;;14.83;13.40;;;21.20;97.10;;;;;;5073100;28;20476;-66
2022/07/24 01:39:19;;;;;;;14.60;13.10;;;21.20;97.20;;;;;;5072575;28;20446;-66
2022/07/24 01:41:46;;;;;;;15.50;13.07;;;21.20;97.20;;;;;;5072648;28;20554;-67
2022/07/24 01:44:14;;;;;;;14.00;12.27;;;21.20;97.30;;;;;;5072917;28;20445;-66
2022/07/24 01:46:41;;;;;;;14.60;13.10;;;21.20;97.30;;;;;;5072877;28;20944;-66
2022/07/24 01:49:09;;;;;;;14.50;13.20;;;21.20;97.40;;;;;;5071962;28;20471;-66
2022/07/24 01:51:36;;;;;;;16.70;14.00;;;21.20;97.50;;;;;;5072609;28;20439;-66
2022/07/24 01:54:03;;;;;;;13.90;12.07;;;21.10;97.50;;;;;;5072436;28;20772;-66
2022/07/24 01:56:33;;;;;;;15.67;14.07;;;21.20;97.50;;;;;;5072607;28;20480;-66
2022/07/24 01:59:00;;;;;;;14.80;13.40;;;21.10;97.70;;;;;;5071576;28;20442;-65
2022/07/24 02:01:29;;;;;;;14.30;12.77;;;21.10;97.80;;;;;;5072485;28;20496;-66
2022/07/24 02:03:57;;;;;;;14.03;12.67;;;21.00;97.60;;;;;;5072753;28;20442;-66
2022/07/24 02:06:24;;;;;;;14.67;12.20;;;20.90;97.50;;;;;;5072089;28;20503;-66
2022/07/24 02:08:51;;;;;;;14.63;12.20;;;21.00;97.70;;;;;;5072426;28;20446;-66
2022/07/24 02:11:19;;;;;;;14.60;12.07;;;20.90;97.80;;;;;;5072390;28;20466;-65
2022/07/24 02:13:47;;;;;;;14.43;12.97;;;20.90;97.90;;;;;;5071555;28;20445;-66
2022/07/24 02:16:15;;;;;;;13.47;12.20;;;20.90;98.00;;;;;;5072310;28;20486;-66
2022/07/24 02:18:42;;;;;;;14.67;12.50;;;20.90;98.00;;;;;;5072389;28;20566;-66
2022/07/24 02:21:10;;;;;;;13.57;11.40;;;20.90;98.00;;;;;;5071182;28;20438;-66
2022/07/24 02:23:37;;;;;;;15.00;13.50;;;20.90;98.20;;;;;;5071653;28;20552;-68
2022/07/24 02:26:04;;;;;;;15.53;13.97;;;20.90;98.00;;;;;;5072304;28;20844;-66
2022/07/24 02:28:32;;;;;;;15.30;13.70;;;20.90;97.80;;;;;;5071486;28;20443;-66
2022/07/24 02:31:00;;;;;;;15.23;12.87;;;20.90;97.70;;;;;;5071454;28;20941;-66
2022/07/24 02:33:27;;;;;;;14.27;12.97;;;20.80;97.50;;;;;;5072198;28;20802;-66
2022/07/24 02:35:55;;;;;;;15.10;12.07;;;20.80;97.60;;;;;;5071925;28;20482;-66
2022/07/24 02:38:22;;;;;;;14.80;12.40;;;20.80;97.60;;;;;;5072153;28;20445;-65
2022/07/24 02:40:49;;;;;;;13.30;12.03;;;20.80;97.40;;;;;;5071780;28;20985;-69
2022/07/24 02:43:16;;;;;;;14.03;12.63;;;20.80;97.30;;;;;;5072360;28;20472;-66
2022/07/24 02:45:44;;;;;;;13.47;12.13;;;20.80;97.20;;;;;;5071827;28;20441;-66
2022/07/24 02:48:13;;;;;;;14.73;13.23;;;20.80;97.30;;;;;;5072314;28;20544;-66
2022/07/24 02:50:40;;;;;;;14.63;12.30;;;20.70;97.40;;;;;;5071739;28;20479;-66
2022/07/24 02:53:08;;;;;;;14.73;13.27;;;20.60;97.40;;;;;;5071819;28;21005;-65
2022/07/24 02:55:35;;;;;;;16.77;15.00;;;20.60;97.40;;;;;;5072119;28;20816;-66
2022/07/24 02:58:03;;;;;;;15.20;13.10;;;20.60;97.40;;;;;;5071566;28;20436;-66
2022/07/24 03:00:30;;;;;;;14.43;13.10;;;20.60;97.50;;;;;;5071984;28;20447;-66
2022/07/24 03:02:58;;;;;;;15.37;13.20;;;20.60;97.50;;;;;;5071557;28;20438;-66
2022/07/24 03:05:27;;;;;;;13.90;12.40;;;20.60;97.50;;;;;;5072100;28;20487;-66
2022/07/24 03:07:56;;;;;;;15.50;12.47;;;20.50;97.40;;;;;;5071303;28;20462;-66
2022/07/24 03:10:23;;;;;;;14.50;12.83;;;20.50;97.50;;;;;;5072136;28;20449;-66
2022/07/24 03:12:51;;;;;;;13.23;11.93;;;20.40;97.50;;;;;;5071783;28;20462;-66
2022/07/24 03:15:18;;;;;;;14.40;12.63;;;20.50;97.70;;;;;;5071996;28;20828;-68
2022/07/24 03:17:53;;;;;;;16.77;15.17;;;20.40;97.60;;;;;;5071275;28;20442;-68
2022/07/24 03:20:20;;;;;;;13.40;12.03;;;20.40;97.70;;;;;;5071877;28;20564;-67
2022/07/24 03:22:50;;;;;;;13.23;11.90;;;20.30;97.80;;;;;;5071243;28;20510;-68
2022/07/24 03:25:18;;;;;;;16.30;12.53;;;20.20;97.90;;;;;;5072330;28;20436;-67
2022/07/24 03:27:47;;;;;;;15.17;12.80;;;20.10;98.40;;;;;;5071710;28;20438;-67
2022/07/24 03:30:15;;;;;;;19.87;13.53;;;20.10;98.50;;;;;;5071425;28;20530;-68
2022/07/24 03:32:42;;;;;;;14.70;13.20;;;20.00;98.60;;;;;;5071567;28;20861;-67
2022/07/24 03:35:10;;;;;;;19.57;15.00;;;20.00;98.50;;;;;;5071876;28;20438;-68
2022/07/24 03:37:37;;;;;;;15.40;13.77;;;20.00;98.60;;;;;;5071286;28;20439;-67
2022/07/24 03:40:07;;;;;;;15.07;12.60;;;20.00;98.60;;;;;;5073149;28;20444;-69
2022/07/24 03:42:35;;;;;;;14.80;13.40;;;19.90;98.90;;;;;;5074832;28;20428;-67
2022/07/24 03:45:02;;;;;;;16.93;14.80;;;19.90;98.80;;;;;;5075419;28;20835;-67
2022/07/24 03:47:29;;;;;;;17.57;15.60;;;19.80;98.80;;;;;;5074917;28;20436;-68
2022/07/24 03:49:56;;;;;;;19.00;16.27;;;19.80;99.00;;;;;;5075402;28;20504;-67
2022/07/24 03:52:23;;;;;;;15.10;13.60;;;19.80;99.10;;;;;;5075002;28;20437;-68
2022/07/24 03:54:51;;;;;;;16.17;14.47;;;19.80;99.20;;;;;;5075419;28;20442;-67
2022/07/24 03:57:19;;;;;;;15.13;13.47;;;19.80;99.20;;;;;;5074540;28;20478;-67
2022/07/24 03:59:47;;;;;;;16.60;14.90;;;19.80;99.00;;;;;;5075040;28;20489;-68
2022/07/24 04:02:14;;;;;;;15.70;13.97;;;19.90;99.00;;;;;;5075133;28;20486;-67
2022/07/24 04:04:41;;;;;;;14.47;12.97;;;20.00;98.90;;;;;;5075614;28;20799;-68
2022/07/24 04:07:08;;;;;;;16.80;15.07;;;20.00;99.00;;;;;;5075278;28;20439;-75
2022/07/24 04:09:35;;;;;;;22.40;20.07;;;20.10;99.10;;;;;;5075084;28;20432;-68
2022/07/24 04:12:03;;;;;;;19.43;17.53;;;20.10;98.90;;;;;;5075055;28;20508;-67
2022/07/24 04:14:32;;;;;;;17.30;15.57;;;20.10;98.70;;;;;;5075077;28;20887;-67
2022/07/24 04:16:59;;;;;;;16.43;14.73;;;20.20;98.30;;;;;;5074993;28;20473;-70
2022/07/24 04:19:26;;;;;;;17.90;15.07;;;20.20;98.40;;;;;;5075469;28;20844;-67
2022/07/24 04:21:53;;;;;;;18.47;16.63;;;20.10;98.50;;;;;;5074989;28;20440;-67
2022/07/24 04:24:20;;;;;;;22.50;15.40;;;20.10;98.60;;;;;;5074998;28;20464;-67
2022/07/24 04:26:47;;;;;;;17.57;15.73;;;20.10;98.60;;;;;;5074794;28;20429;-67
2022/07/24 04:29:15;;;;;;;17.13;15.43;;;20.10;98.70;;;;;;5070916;28;20457;-68
2022/07/24 04:31:43;;;;;;;15.53;14.13;;;20.10;98.70;;;;;;5072800;28;20450;-67
2022/07/24 04:34:10;;;;;;;18.80;14.87;;;20.20;98.70;;;;;;5073063;28;20457;-67
2022/07/24 04:36:37;;;;;;;17.10;15.27;;;20.20;98.70;;;;;;5072425;28;20485;-68
2022/07/24 04:39:05;;;;;;;21.37;17.40;;;20.30;98.60;;;;;;5073182;28;20977;-68
2022/07/24 04:41:32;;;;;;;19.23;14.60;;;20.30;98.40;;;;;;5072834;28;20458;-68
2022/07/24 04:43:59;;;;;;;22.00;16.00;;;20.30;98.30;;;;;;5072568;28;20432;-67
2022/07/24 04:46:27;;;;;;;18.70;16.80;;;20.30;98.20;;;;;;5072873;28;20444;-68
2022/07/24 04:48:55;;;;;;;19.80;16.90;;;20.30;98.10;;;;;;5072175;28;20447;-68
2022/07/24 04:51:22;;;;;;;22.70;19.13;;;20.30;98.20;;;;;;5071774;28;20454;-67
2022/07/24 04:53:52;;;;;;;28.80;22.30;;;20.40;98.30;;;;;;5072510;28;20916;-68
2022/07/24 04:56:19;;;;;;;29.43;22.67;;;20.40;98.00;;;;;;5068693;28;20659;-68
2022/07/24 04:58:47;;;;;;;22.37;19.40;;;20.40;98.00;;;;;;5072595;28;20480;-68
2022/07/24 05:01:14;;;;;;;20.23;16.30;;;20.40;98.10;;;;;;5072811;28;20436;-69
2022/07/24 05:03:41;;;;;;;17.37;15.57;;;20.50;97.90;;;;;;5071827;28;20447;-70
2022/07/24 05:06:10;;;;;;;18.07;15.03;;;20.50;97.80;;;;;;5072682;28;20479;-67
2022/07/24 05:08:37;;;;;;;17.80;13.67;;;20.60;97.90;;;;;;5072026;28;20457;-67
2022/07/24 05:11:08;;;;;;;16.70;15.00;;;20.60;97.40;;;;;;5072667;28;20489;-67
2022/07/24 05:13:36;;;;;;;17.80;15.63;;;20.60;97.30;;;;;;5072128;28;20442;-67
2022/07/24 05:16:03;;;;;;;17.47;15.00;;;20.60;97.30;;;;;;5072096;28;20482;-68
2022/07/24 05:18:30;;;;;;;15.80;14.17;;;20.60;97.50;;;;;;5071941;28;20442;-68
2022/07/24 05:20:57;;;;;;;22.30;14.60;;;20.70;97.80;;;;;;5072036;28;20527;-69
2022/07/24 05:23:26;;;;;;;15.70;14.10;;;20.70;98.00;;;;;;5067509;28;20500;-69
2022/07/24 05:25:53;;;;;;;19.53;13.77;;;20.80;97.80;;;;;;5072404;28;21815;-67
2022/07/24 05:28:20;;;;;;;14.13;12.60;;;20.80;97.50;;;;;;5071548;28;20450;-67
2022/07/24 05:30:47;;;;;;;16.10;12.73;;;20.80;97.10;;;;;;5071676;28;20429;-68
2022/07/24 05:33:14;;;;;;;14.10;12.20;;;20.80;97.00;;;;;;5071642;28;20807;-68
2022/07/24 05:35:41;;;;;;;13.93;12.53;;;20.90;96.90;;;;;;5071669;28;20503;-67
2022/07/24 05:38:08;;;;;;;13.37;12.07;;;20.90;96.50;;;;;;5071407;28;20478;-68
2022/07/24 05:40:37;;;;;;;17.20;13.67;;;21.00;96.70;;;;;;5071329;28;20933;-68
2022/07/24 05:43:04;;;;;;;14.40;12.60;;;21.10;96.50;;;;;;5071571;28;20479;-68
2022/07/24 05:45:31;;;;;;;15.50;14.00;;;21.20;96.00;;;;;;5072035;28;20446;-68
2022/07/24 05:47:58;;;;;;;14.83;13.30;;;21.20;95.40;;;;;;5071149;28;20435;-69
2022/07/24 05:50:26;;;;;;;15.47;13.97;;;21.20;95.60;;;;;;5070300;28;20518;-67
2022/07/24 05:52:53;;;;;;;15.53;13.70;;;21.20;96.10;;;;;;5071758;28;20770;-67
2022/07/24 05:55:20;;;;;;;14.93;12.80;;;21.30;96.40;;;;;;5070926;28;20927;-68
2022/07/24 05:57:49;;;;;;;14.00;12.50;;;21.40;96.50;;;;;;5071471;28;20483;-68
2022/07/24 06:00:18;;;;;;;13.77;12.27;;;21.50;96.50;;;;;;5065971;28;20526;-67
2022/07/24 06:02:46;;;;;;;13.40;12.10;;;21.50;96.30;;;;;;5071714;28;20442;-68
2022/07/24 06:05:13;;;;;;;14.70;13.20;;;21.50;96.00;;;;;;5071531;28;20450;-67
2022/07/24 06:07:41;;;;;;;14.43;13.03;;;21.60;95.90;;;;;;5070587;28;20529;-67
2022/07/24 06:10:09;;;;;;;14.67;12.30;;;21.60;95.60;;;;;;5071313;28;20517;-67
2022/07/24 06:12:36;;;;;;;15.73;12.63;;;21.70;95.70;;;;;;5071371;28;20483;-67
2022/07/24 06:15:05;;;;;;;14.10;12.67;;;21.80;95.00;;;;;;5070112;28;20525;-68
2022/07/24 06:17:32;;;;;;;13.00;11.70;;;21.90;94.90;;;;;;5066553;28;20479;-67
2022/07/24 06:20:02;;;;;;;12.53;11.23;;;22.10;94.70;;;;;;5071317;28;20854;-68
2022/07/24 06:22:29;;;;;;;15.57;12.77;;;22.20;94.20;;;;;;5070729;28;20501;-67
2022/07/24 06:24:56;;;;;;;13.77;12.47;;;22.40;94.30;;;;;;5070229;28;20493;-68
2022/07/24 06:27:24;;;;;;;13.83;12.40;;;22.50;93.90;;;;;;5070821;28;20467;-68
2022/07/24 06:29:51;;;;;;;14.37;12.97;;;22.60;93.60;;;;;;5071003;28;20520;-68
2022/07/24 06:32:20;;;;;;;14.53;12.50;;;22.70;92.80;;;;;;5070611;28;20523;-68
2022/07/24 06:34:47;;;;;;;18.27;12.57;;;22.80;93.10;;;;;;5070559;28;20444;-72
2022/07/24 06:37:14;;;;;;;15.20;12.47;;;22.90;93.00;;;;;;5071097;28;20484;-67
2022/07/24 06:39:44;;;;;;;15.13;12.80;;;23.00;93.10;;;;;;5070255;28;20440;-68
2022/07/24 06:42:11;;;;;;;14.37;12.97;;;23.10;92.30;;;;;;5070685;28;20444;-69
2022/07/24 06:44:38;;;;;;;14.50;13.00;;;23.20;92.30;;;;;;5069996;28;20451;-67
2022/07/24 06:47:06;;;;;;;14.67;13.30;;;23.40;92.50;;;;;;5070746;28;20471;-67
2022/07/24 06:49:34;;;;;;;14.60;12.80;;;23.40;92.00;;;;;;5070016;28;20444;-68
2022/07/24 06:52:08;;;;;;;16.23;14.80;;;23.60;92.50;;;;;;5069677;28;20498;-68
2022/07/24 06:54:35;;;;;;;13.07;11.67;;;23.70;92.00;;;;;;5069942;28;20448;-69
2022/07/24 06:57:02;;;;;;;15.17;13.77;;;23.90;92.00;;;;;;5069960;28;20507;-69
2022/07/24 06:59:29;;;;;;;13.90;12.43;;;24.00;91.80;;;;;;5069489;28;20443;-67
2022/07/24 07:01:57;;;;;;;13.83;12.63;;;24.10;91.20;;;;;;5070710;28;20483;-68
2022/07/24 07:04:24;;;;;;;12.53;11.33;;;24.20;91.10;;;;;;5070187;28;20444;-67
2022/07/24 07:06:52;;;;;;;13.63;12.23;;;24.40;90.70;;;;;;5070760;28;20435;-68
2022/07/24 07:09:20;;;;;;;14.40;12.73;;;24.50;90.20;;;;;;5069858;28;20436;-68
2022/07/24 07:11:47;;;;;;;12.67;11.37;;;24.60;89.90;;;;;;5070763;28;20436;-68
2022/07/24 07:14:14;;;;;;;15.53;12.83;;;24.80;90.00;;;;;;5069976;28;20867;-68
2022/07/24 07:16:41;;;;;;;13.23;12.03;;;24.80;88.20;;;;;;5075165;28;20483;-67
2022/07/24 07:19:08;;;;;;;14.53;13.20;;;24.90;87.80;;;;;;5071517;28;20563;-69
2022/07/24 07:21:36;;;;;;;12.70;11.10;;;24.90;88.90;;;;;;5073981;28;20460;-67
2022/07/24 07:24:05;;;;;;;14.03;11.80;;;25.10;87.90;;;;;;5073711;28;20581;-67
2022/07/24 07:26:32;;;;;;;12.37;11.17;;;25.20;87.70;;;;;;5074657;28;20515;-68
2022/07/24 07:28:59;;;;;;;13.30;12.07;;;25.30;87.50;;;;;;5073561;28;20526;-68
2022/07/24 07:31:27;;;;;;;13.30;11.37;;;25.40;86.70;;;;;;5074930;28;20526;-67
2022/07/24 07:33:54;;;;;;;13.07;10.50;;;25.60;87.00;;;;;;5074032;28;20845;-69
2022/07/24 07:36:22;;;;;;;12.93;11.73;;;25.70;86.60;;;;;;5074263;28;20860;-67
2022/07/24 07:38:49;;;;;;;12.70;11.40;;;25.90;85.80;;;;;;5073808;28;20450;-68
2022/07/24 07:41:19;;;;;;;12.90;11.60;;;26.00;84.20;;;;;;5073149;28;20493;-68
2022/07/24 07:43:46;;;;;;;16.40;12.33;;;26.10;83.70;;;;;;5073279;28;20439;-71
2022/07/24 07:46:19;;;;;;;11.80;10.77;;;26.20;83.70;;;;;;5072960;28;20438;-68
2022/07/24 07:48:46;;;;;;;10.90;9.87;;;26.40;82.60;;;;;;5073725;28;20539;-67
2022/07/24 07:51:14;;;;;;;10.77;9.77;;;26.50;82.50;;;;;;5073621;28;20475;-67
2022/07/24 07:53:41;;;;;;;11.23;9.97;;;26.60;82.20;;;;;;5073375;28;20479;-70
2022/07/24 07:56:08;;;;;;;12.67;11.20;;;26.80;81.20;;;;;;5069018;28;20463;-68
2022/07/24 07:58:36;;;;;;;12.03;10.90;;;26.80;78.30;;;;;;5070141;28;20515;-67
2022/07/24 08:01:05;;;;;;;10.27;9.33;;;26.90;79.30;;;;;;5073857;28;20446;-67
2022/07/24 08:03:32;;;;;;;12.00;10.90;;;27.00;79.20;;;;;;5072998;28;20504;-68
2022/07/24 08:05:59;;;;;;;13.80;11.50;;;27.10;78.40;;;;;;5073572;28;20452;-68
2022/07/24 08:08:26;;;;;;;12.53;11.33;;;27.30;79.10;;;;;;5073966;28;20527;-68
2022/07/24 08:10:53;;;;;;;11.67;10.47;;;27.40;77.80;;;;;;5072915;28;20519;-68
2022/07/24 08:13:20;;;;;;;11.57;10.50;;;27.50;77.50;;;;;;5073224;28;20459;-69
2022/07/24 08:15:48;;;;;;;12.20;11.00;;;27.60;77.20;;;;;;5073490;28;20464;-68
2022/07/24 08:18:15;;;;;;;11.80;10.70;;;27.70;76.40;;;;;;5074055;28;20578;-67
2022/07/24 08:20:44;;;;;;;11.20;10.10;;;27.90;76.50;;;;;;5072533;28;20432;-68
2022/07/24 08:23:11;;;;;;;12.07;10.87;;;28.00;76.30;;;;;;5072512;28;20463;-68
2022/07/24 08:25:38;;;;;;;10.37;9.47;;;28.10;74.80;;;;;;5072659;28;20432;-67
2022/07/24 08:28:05;;;;;;;11.40;10.20;;;28.20;74.70;;;;;;5073428;28;20440;-68
2022/07/24 08:30:32;;;;;;;11.70;10.60;;;28.30;73.90;;;;;;5072811;28;20436;-67
2022/07/24 08:33:01;;;;;;;10.80;9.70;;;28.40;74.10;;;;;;5072305;28;20480;-68
2022/07/24 08:35:28;;;;;;;10.23;9.30;;;28.50;73.50;;;;;;5072852;28;20459;-67
2022/07/24 08:37:56;;;;;;;11.97;10.77;;;28.60;72.60;;;;;;5073243;28;20495;-68
2022/07/24 08:40:23;;;;;;;10.70;9.80;;;28.70;72.40;;;;;;5072322;28;20506;-69
2022/07/24 08:42:51;;;;;;;11.50;9.20;;;28.90;71.20;;;;;;5068794;28;20432;-67
2022/07/24 08:45:18;;;;;;;10.73;9.60;;;29.00;69.90;;;;;;5072783;28;20436;-67
2022/07/24 08:47:46;;;;;;;10.60;9.70;;;29.10;70.40;;;;;;5073204;28;20438;-68
2022/07/24 08:50:15;;;;;;;16.50;10.80;;;29.20;71.00;;;;;;5072455;28;20436;-68
2022/07/24 08:52:43;;;;;;;10.83;9.33;;;29.30;70.80;;;;;;5072911;28;20827;-68
2022/07/24 08:55:10;;;;;;;11.27;9.90;;;29.30;67.20;;;;;;5072409;28;20497;-67
2022/07/24 08:57:37;;;;;;;12.07;10.73;;;29.40;67.20;;;;;;5072657;28;20901;-68
2022/07/24 09:00:05;;;;;;;11.27;10.17;;;29.50;67.20;;;;;;5070920;28;20464;-68
2022/07/24 09:02:33;;;;;;;31.90;9.70;;;29.70;67.70;;;;;;5064651;28;20447;-68
2022/07/24 09:05:01;;;;;;;9.90;9.00;;;29.80;66.40;;;;;;5070693;28;20451;-67
2022/07/24 09:07:31;;;;;;;11.93;10.87;;;29.80;64.70;;;;;;5070925;28;20440;-77
2022/07/24 09:10:03;;;;;;;10.23;9.23;;;30.00;62.70;;;;;;5066894;28;20436;-71
2022/07/24 09:12:35;;;;;;;11.87;10.63;;;30.10;62.20;;;;;;5070776;28;20788;-68
2022/07/24 09:15:11;;;;;;;10.93;9.83;;;30.20;61.50;;;;;;5071061;28;20447;-68
2022/07/24 09:17:48;;;;;;;11.33;10.23;;;30.30;59.90;;;;;;5071147;28;21910;-67
2022/07/24 09:20:16;;;;;;;9.20;8.40;;;30.40;61.40;;;;;;5071151;28;20463;-68
2022/07/24 09:22:45;;;;;;;10.47;9.50;;;30.60;60.30;;;;;;5070824;28;20436;-67
2022/07/24 09:25:16;;;;;;;11.13;10.03;;;30.70;59.80;;;;;;5070539;28;20436;-67
2022/07/24 09:27:47;;;;;;;12.70;10.90;;;30.80;58.90;;;;;;5070032;28;20953;-68
2022/07/24 09:30:28;;;;;;;12.10;10.57;;;30.80;59.70;;;;;;5070468;28;20447;-68
2022/07/24 09:32:57;;;;;;;11.37;10.27;;;30.90;56.50;;;;;;5070735;28;20440;-69
2022/07/24 09:35:32;;;;;;;13.47;10.37;;;30.90;57.60;;;;;;5066173;28;20447;-68
2022/07/24 09:38:02;;;;;;;11.53;10.50;;;31.00;55.90;;;;;;5069958;28;20471;-68
2022/07/24 09:40:35;;;;;;;10.93;9.83;;;30.90;55.30;;;;;;5070252;28;20917;-68
2022/07/24 09:43:23;;;;;;;9.07;8.00;;;31.00;56.30;;;;;;5070783;28;20944;-68
2022/07/24 09:45:57;;;;;;;9.27;8.37;;;31.20;56.30;;;;;;5069942;28;20934;-67
2022/07/24 09:48:26;;;;;;;10.93;9.83;;;31.30;56.70;;;;;;5071024;28;20527;-68
2022/07/24 09:50:55;;;;;;;11.17;10.10;;;31.50;56.60;;;;;;5069467;28;20435;-69
2022/07/24 09:53:26;;;;;;;10.20;9.27;;;31.70;54.40;;;;;;5070464;28;20436;-67
2022/07/24 09:56:05;;;;;;;10.17;9.27;;;31.80;54.10;;;;;;5070563;28;20802;-68
2022/07/24 09:58:35;;;;;;;10.10;9.10;;;31.80;52.90;;;;;;5071361;28;20515;-68
2022/07/24 10:01:03;;;;;;;9.30;8.40;;;31.90;52.90;;;;;;5070320;28;20440;-67
2022/07/24 10:03:32;;;;;;;10.90;9.70;;;31.90;53.40;;;;;;5070477;28;20527;-69
2022/07/24 10:06:03;;;;;;;9.43;8.60;;;32.00;54.00;;;;;;5068478;28;20800;-67
2022/07/24 10:08:33;;;;;;;13.33;8.20;;;32.10;53.20;;;;;;5071028;28;20804;-68
2022/07/24 10:11:01;;;;;;;9.83;8.93;;;32.10;53.40;;;;;;5071068;28;20440;-67
2022/07/24 10:13:28;;;;;;;8.90;8.10;;;32.20;52.10;;;;;;5071262;28;20444;-68
2022/07/24 10:16:14;;;;;;;9.70;8.70;;;32.30;52.70;;;;;;5070797;28;20443;-67
2022/07/24 10:18:48;;;;;;;9.60;8.70;;;32.40;51.70;;;;;;5071282;28;20534;-68
2022/07/24 10:21:18;;;;;;;10.00;9.10;;;32.50;51.70;;;;;;5069897;28;20440;-68
2022/07/24 10:24:14;;;;;;;10.17;9.17;;;32.60;51.00;;;;;;5066633;28;20472;-68
2022/07/24 10:26:42;;;;;;;9.70;8.80;;;32.60;50.50;;;;;;5068674;28;20523;-67
2022/07/24 10:29:12;;;;;;;9.87;8.57;;;32.70;50.00;;;;;;5070693;28;20658;-68
2022/07/24 10:31:41;;;;;;;10.33;9.40;;;32.80;50.30;;;;;;5069451;28;20539;-67
2022/07/24 10:34:17;;;;;;;10.20;9.20;;;32.80;49.90;;;;;;5065576;28;20464;-67
2022/07/24 10:36:52;;;;;;;9.97;8.97;;;32.80;49.10;;;;;;5071250;28;20443;-68
2022/07/24 10:39:29;;;;;;;9.87;9.03;;;32.80;47.00;;;;;;5065538;28;20467;-67
2022/07/24 10:42:01;;;;;;;11.67;8.90;;;32.70;47.40;;;;;;5070451;28;20434;-67
2022/07/24 10:44:29;;;;;;;13.13;9.00;;;32.60;46.60;;;;;;5069465;28;20436;-69
2022/07/24 10:47:08;;;;;;;9.27;8.37;;;32.60;49.00;;;;;;5070883;28;20926;-68
2022/07/24 10:49:37;;;;;;;9.50;8.60;;;32.80;48.80;;;;;;5069834;28;20497;-70
2022/07/24 10:52:05;;;;;;;9.07;8.27;;;32.80;48.60;;;;;;5070873;28;20436;-67
2022/07/24 10:54:33;;;;;;;8.37;7.57;;;32.80;48.70;;;;;;5070962;28;20554;-67
2022/07/24 10:57:00;;;;;;;9.40;7.77;;;32.80;47.60;;;;;;5070015;28;20454;-70
2022/07/24 10:59:41;;;;;;;9.20;8.10;;;32.90;47.40;;;;;;5070034;28;20472;-68
2022/07/24 11:02:29;;;;;;;9.00;8.20;;;33.00;45.40;;;;;;5070260;28;20926;-68
2022/07/24 11:05:25;;;;;;;9.00;8.10;;;33.00;46.30;;;;;;5070779;28;20444;-68
2022/07/24 11:08:33;;;;;;;10.83;8.23;;;33.20;47.20;;;;;;5068371;28;21276;-68
2022/07/24 11:11:08;;;;;;;9.67;8.63;;;33.20;47.00;;;;;;5060983;28;20447;-68
2022/07/24 11:13:47;;;;;;;9.30;8.40;;;33.20;46.30;;;;;;5066825;28;20446;-68
2022/07/24 11:16:28;;;;;;;8.77;8.00;;;33.20;46.20;;;;;;5068708;28;20530;-67
2022/07/24 11:19:30;;;;;;;8.63;7.83;;;33.00;45.00;;;;;;5068388;28;20566;-69
2022/07/24 11:22:09;;;;;;;9.03;8.23;;;32.90;45.00;;;;;;5063614;28;20431;-75
2022/07/24 11:24:51;;;;;;;9.23;8.33;;;32.90;44.40;;;;;;5067557;28;20478;-67
2022/07/24 11:27:22;;;;;;;9.33;8.50;;;32.90;46.10;;;;;;5057325;28;20448;-68
2022/07/24 11:29:55;;;;;;;8.20;7.50;;;33.00;47.10;;;;;;5069028;28;20949;-67
2022/07/24 11:32:22;;;;;;;8.63;7.93;;;33.00;46.20;;;;;;5066450;28;20432;-67
2022/07/24 11:34:53;;;;;;;8.17;7.43;;;33.20;46.50;;;;;;5070019;28;20505;-67
2022/07/24 11:37:24;;;;;;;8.73;7.83;;;33.30;45.60;;;;;;5069521;28;20428;-66
2022/07/24 11:39:51;;;;;;;8.60;7.80;;;33.50;46.40;;;;;;5066142;28;20483;-66
2022/07/24 11:42:20;;;;;;;13.00;7.83;;;33.70;45.10;;;;;;5069912;28;20436;-66
2022/07/24 11:44:49;;;;;;;8.80;7.90;;;33.90;42.50;;;;;;5069741;28;20436;-66
2022/07/24 11:47:18;;;;;;;7.20;6.60;;;34.00;43.50;;;;;;5070243;28;20825;-66
2022/07/24 11:49:46;;;;;;;8.57;7.70;;;34.10;42.80;;;;;;5069829;28;20447;-66
2022/07/24 11:52:19;;;;;;;8.77;7.53;;;34.10;39.60;;;;;;5070406;28;20522;-67
2022/07/24 11:54:47;;;;;;;7.57;6.97;;;34.30;41.20;;;;;;5069456;28;20806;-66
2022/07/24 11:57:20;;;;;;;8.10;7.30;;;34.50;42.40;;;;;;5070261;28;20440;-66
2022/07/24 11:59:48;;;;;;;8.53;7.77;;;34.70;40.30;;;;;;5070033;28;20521;-66
2022/07/24 12:02:16;;;;;;;9.70;8.90;;;34.90;40.30;;;;;;5073458;28;20535;-66
2022/07/24 12:04:45;;;;;;;8.50;7.77;;;34.90;38.90;;;;;;5073058;28;20594;-67
2022/07/24 12:07:14;;;;;;;9.90;8.00;;;35.00;38.80;;;;;;5073388;28;20479;-66
2022/07/24 12:09:46;;;;;;;8.00;7.30;;;34.90;39.30;;;;;;5071949;28;20434;-73
2022/07/24 12:12:30;;;;;;;9.17;7.13;;;34.80;39.40;;;;;;5071665;28;20436;-66
2022/07/24 12:15:03;;;;;;;8.43;7.73;;;34.80;40.10;;;;;;5068732;28;20436;-67
2022/07/24 12:17:31;;;;;;;9.83;7.50;;;34.60;38.90;;;;;;5073862;28;20938;-66
2022/07/24 12:20:01;;;;;;;7.70;7.10;;;34.50;41.00;;;;;;5073710;28;20512;-66
2022/07/24 12:22:31;;;;;;;9.03;8.17;;;34.40;40.00;;;;;;5073091;28;20456;-66
2022/07/24 12:24:59;;;;;;;10.60;8.53;;;34.30;40.30;;;;;;5073121;28;20466;-66
2022/07/24 12:27:42;;;;;;;8.30;7.50;;;34.30;40.50;;;;;;5072540;28;20515;-67
2022/07/24 12:30:24;;;;;;;8.27;7.47;;;34.40;41.70;;;;;;5073476;28;20432;-66
2022/07/24 12:32:59;;;;;;;8.60;7.63;;;34.50;39.20;;;;;;5072488;28;20443;-67
2022/07/24 12:35:28;;;;;;;7.50;6.80;;;34.60;39.10;;;;;;5073448;28;20497;-71
2022/07/24 12:37:56;;;;;;;6.67;6.07;;;34.80;38.10;;;;;;5073085;28;20527;-67
2022/07/24 12:40:29;;;;;;;7.40;6.77;;;34.80;38.30;;;;;;5069071;28;20483;-67